Time;durP1;ratioP1;P1;durP2;ratioP2;P2;SDS_P1;SDS_P2;PMS_P1;PMS_P2;Temp;Humidity;BMP_temperature;BMP_pressure;BME280_temperature;BME280_humidity;BME280_pressure;Samples;Min_cycle;Max_cycle;Signal;HPM_P1;HPM_P2
2023/07/08 00:01:56;;;;;;;;;;;;;;;18.49;47.74;97077.47;6223765;28;19917;-70
2023/07/08 00:05:00;;;;;;;;;;;;;;;18.50;48.13;97076.47;6205699;28;19927;-68
2023/07/08 00:08:02;;;;;;;;;;;;;;;18.50;47.48;97079.16;6206340;28;20060;-69
2023/07/08 00:11:08;;;;;;;;;;;;;;;18.49;47.20;97080.16;6222566;28;19921;-69
2023/07/08 00:14:09;;;;;;;;;;;;;;;18.45;47.12;97081.41;6223641;28;19921;-69
2023/07/08 00:17:11;;;;;;;;;;;;;;;18.33;47.50;97078.06;6205400;28;20007;-71
2023/07/08 00:20:17;;;;;;;;;;;;;;;18.24;47.88;97079.75;6223123;28;19975;-69
2023/07/08 00:23:23;;;;;;;;;;;;;;;18.16;47.72;97080.47;6223566;28;20076;-70
2023/07/08 00:26:26;;;;;;;;;;;;;;;18.17;49.12;97083.94;6205894;28;20387;-69
2023/07/08 00:29:27;;;;;;;;;;;;;;;18.23;48.07;97077.22;6223089;28;19921;-69
2023/07/08 00:32:28;;;;;;;;;;;;;;;18.28;48.09;97075.81;6223029;28;19928;-69
2023/07/08 00:35:41;;;;;;;;;;;;;;;18.33;48.06;97073.56;6222869;28;19928;-70
2023/07/08 00:38:47;;;;;;;;;;;;;;;18.38;47.59;97073.97;6204843;28;19921;-70
2023/07/08 00:41:49;;;;;;;;;;;;;;;18.40;47.74;97074.69;6222226;28;19921;-72
2023/07/08 00:44:50;;;;;;;;;;;;;;;18.46;47.60;97077.78;6204178;28;19921;-71
2023/07/08 00:47:51;;;;;;;;;;;;;;;18.46;47.17;97083.09;6221569;28;19921;-70
2023/07/08 00:50:55;;;;;;;;;;;;;;;18.40;47.73;97085.34;6221982;28;20399;-70
2023/07/08 00:53:56;;;;;;;;;;;;;;;18.34;48.19;97083.25;6222203;28;20405;-71
2023/07/08 00:57:00;;;;;;;;;;;;;;;18.29;47.96;97082.84;6221977;28;20007;-69
2023/07/08 01:00:04;;;;;;;;;;;;;;;18.31;48.69;97088.00;6222100;28;19921;-70
2023/07/08 01:03:05;;;;;;;;;;;;;;;18.37;48.31;97096.28;6221428;28;19921;-71
2023/07/08 01:06:09;;;;;;;;;;;;;;;18.46;48.48;97104.41;6221326;28;20051;-70
2023/07/08 01:09:13;;;;;;;;;;;;;;;18.54;48.20;97099.19;6221795;28;20394;-70
2023/07/08 01:12:18;;;;;;;;;;;;;;;18.63;48.14;97101.84;6222515;28;19923;-70
2023/07/08 01:15:21;;;;;;;;;;;;;;;18.73;47.39;97100.97;6221241;28;19944;-69
2023/07/08 01:18:25;;;;;;;;;;;;;;;18.82;47.02;97106.31;6222010;28;19921;-70
2023/07/08 01:21:33;;;;;;;;;;;;;;;18.87;47.42;97108.53;6221834;28;19921;-69
2023/07/08 01:24:36;;;;;;;;;;;;;;;18.90;47.55;97102.06;6221238;28;19929;-71
2023/07/08 01:27:42;;;;;;;;;;;;;;;18.91;46.38;97114.41;6204220;28;19928;-69
2023/07/08 01:30:47;;;;;;;;;;;;;;;18.93;47.28;97118.59;6221815;28;20361;-71
2023/07/08 01:33:51;;;;;;;;;;;;;;;19.00;46.57;97114.38;6221256;28;19922;-70
2023/07/08 01:36:56;;;;;;;;;;;;;;;19.12;46.57;97116.88;6203958;28;19929;-69
2023/07/08 01:39:57;;;;;;;;;;;;;;;19.26;46.33;97116.38;6203560;28;19928;-70
2023/07/08 01:43:01;;;;;;;;;;;;;;;19.39;46.55;97116.88;6221621;28;19921;-70
2023/07/08 01:46:02;;;;;;;;;;;;;;;19.47;45.83;97116.13;6220585;28;19921;-70
2023/07/08 01:49:07;;;;;;;;;;;;;;;19.60;45.94;97115.78;6172489;28;19944;-69
2023/07/08 01:52:15;;;;;;;;;;;;;;;19.70;46.09;97116.56;6188328;28;19921;-70
2023/07/08 01:55:20;;;;;;;;;;;;;;;19.80;45.88;97111.19;6220319;28;19921;-70
2023/07/08 01:58:24;;;;;;;;;;;;;;;19.88;45.97;97109.44;6220179;28;19928;-70
2023/07/08 02:01:26;;;;;;;;;;;;;;;19.89;46.22;97107.59;6221188;28;20307;-70
2023/07/08 02:04:30;;;;;;;;;;;;;;;19.90;45.72;97112.81;6220248;28;19965;-69
2023/07/08 02:07:31;;;;;;;;;;;;;;;19.91;46.30;97113.63;6220535;28;19928;-70
2023/07/08 02:10:34;;;;;;;;;;;;;;;19.90;45.57;97122.63;6220952;28;19917;-69
2023/07/08 02:13:35;;;;;;;;;;;;;;;19.92;45.69;97107.28;6220087;28;20147;-71
2023/07/08 02:16:39;;;;;;;;;;;;;;;20.02;45.79;97115.25;6220894;28;19925;-70
2023/07/08 02:19:40;;;;;;;;;;;;;;;20.10;45.55;97118.00;6220431;28;19924;-70
2023/07/08 02:22:41;;;;;;;;;;;;;;;20.13;45.67;97110.50;6203232;28;20290;-69
2023/07/08 02:25:54;;;;;;;;;;;;;;;20.21;45.57;97119.56;6202933;28;20238;-70
2023/07/08 02:28:59;;;;;;;;;;;;;;;20.31;45.01;97109.66;6202487;28;19929;-70
2023/07/08 02:32:00;;;;;;;;;;;;;;;20.40;45.07;97098.03;6219535;28;19936;-69
2023/07/08 02:35:04;;;;;;;;;;;;;;;20.48;44.96;97108.78;6203562;28;20026;-70
2023/07/08 02:38:08;;;;;;;;;;;;;;;20.59;44.79;97108.56;6220524;28;20510;-69
2023/07/08 02:41:13;;;;;;;;;;;;;;;20.59;44.56;97108.56;6220811;28;19921;-70
2023/07/08 02:44:14;;;;;;;;;;;;;;;20.65;44.26;97106.25;6219674;28;19917;-70
2023/07/08 02:47:17;;;;;;;;;;;;;;;20.76;44.62;97097.97;6202335;28;19928;-70
2023/07/08 02:50:21;;;;;;;;;;;;;;;20.83;44.39;97101.69;6219854;28;19928;-69
2023/07/08 02:53:25;;;;;;;;;;;;;;;20.91;44.43;97091.03;6219991;28;19921;-70
2023/07/08 02:56:31;;;;;;;;;;;;;;;20.99;43.93;97098.28;6203435;28;19921;-70
2023/07/08 02:59:34;;;;;;;;;;;;;;;21.14;43.69;97101.19;6220396;28;20402;-70
2023/07/08 03:02:40;;;;;;;;;;;;;;;21.28;43.29;97103.25;6220528;28;19921;-69
2023/07/08 03:05:43;;;;;;;;;;;;;;;21.44;42.77;97108.72;6202287;28;19970;-70
2023/07/08 03:08:47;;;;;;;;;;;;;;;21.61;42.62;97109.59;6204204;28;19969;-70
2023/07/08 03:11:50;;;;;;;;;;;;;;;21.72;42.42;97111.16;6225181;28;19921;-70
2023/07/08 03:14:53;;;;;;;;;;;;;;;21.80;42.34;97119.22;6224858;28;20322;-71
2023/07/08 03:17:57;;;;;;;;;;;;;;;21.99;41.91;97118.06;6206893;28;20350;-69
2023/07/08 03:21:01;;;;;;;;;;;;;;;22.27;41.53;97115.09;6224770;28;19921;-70
2023/07/08 03:24:04;;;;;;;;;;;;;;;22.44;41.26;97115.94;6224212;28;19928;-70
2023/07/08 03:27:08;;;;;;;;;;;;;;;22.58;41.06;97123.31;6224346;28;19921;-70
2023/07/08 03:30:09;;;;;;;;;;;;;;;22.72;40.73;97122.63;6224483;28;19960;-72
2023/07/08 03:33:13;;;;;;;;;;;;;;;22.84;40.40;97125.78;6224185;28;19928;-70
2023/07/08 03:36:24;;;;;;;;;;;;;;;22.88;40.27;97126.31;6224434;28;20011;-71
2023/07/08 03:39:31;;;;;;;;;;;;;;;22.94;40.05;97133.66;6224225;28;20287;-69
2023/07/08 03:42:37;;;;;;;;;;;;;;;23.01;39.97;97140.03;6191289;28;19921;-70
2023/07/08 03:45:38;;;;;;;;;;;;;;;22.92;39.94;97135.69;6224049;28;19928;-71
2023/07/08 03:48:41;;;;;;;;;;;;;;;22.94;40.07;97133.66;6223845;28;19921;-71
2023/07/08 03:51:43;;;;;;;;;;;;;;;23.07;39.86;97144.72;6223519;28;19921;-70
2023/07/08 03:54:47;;;;;;;;;;;;;;;23.11;39.45;97146.06;6223975;28;19921;-70
2023/07/08 03:57:50;;;;;;;;;;;;;;;23.19;39.44;97138.00;6223881;28;19960;-70
2023/07/08 04:00:56;;;;;;;;;;;;;;;23.27;39.33;97135.28;6206646;28;19921;-70
2023/07/08 04:03:58;;;;;;;;;;;;;;;23.43;39.25;97134.38;6223667;28;19928;-70
2023/07/08 04:07:02;;;;;;;;;;;;;;;23.63;38.96;97136.66;6223502;28;20299;-71
2023/07/08 04:10:03;;;;;;;;;;;;;;;23.86;38.68;97128.66;6223423;28;19921;-70
2023/07/08 04:13:05;;;;;;;;;;;;;;;24.08;38.22;97127.84;6223342;28;19921;-72
2023/07/08 04:16:15;;;;;;;;;;;;;;;24.36;37.86;97127.34;6222987;28;20402;-70
2023/07/08 04:19:19;;;;;;;;;;;;;;;24.48;37.60;97120.53;6223247;28;19925;-70
2023/07/08 04:22:20;;;;;;;;;;;;;;;24.63;37.36;97116.03;6222936;28;19925;-70
2023/07/08 04:25:24;;;;;;;;;;;;;;;24.80;37.35;97119.41;6223022;28;19945;-71
2023/07/08 04:28:37;;;;;;;;;;;;;;;24.95;36.92;97114.06;6223009;28;19922;-70
2023/07/08 04:31:43;;;;;;;;;;;;;;;25.08;36.74;97113.41;6222603;28;19921;-70
2023/07/08 04:34:45;;;;;;;;;;;;;;;25.17;36.65;97116.91;6205312;28;19922;-71
2023/07/08 04:37:47;;;;;;;;;;;;;;;25.22;36.86;97117.16;6222603;28;20510;-70
2023/07/08 04:40:50;;;;;;;;;;;;;;;25.32;36.78;97120.41;6203881;28;19999;-69
2023/07/08 04:43:56;;;;;;;;;;;;;;;25.42;36.22;97120.13;6204513;28;19922;-70
2023/07/08 04:46:58;;;;;;;;;;;;;;;25.66;36.29;97121.69;6221079;28;19921;-71
2023/07/08 04:50:01;;;;;;;;;;;;;;;27.42;33.60;97129.13;6221307;28;19921;-72
2023/07/08 04:53:08;;;;;;;;;;;;;;;30.73;29.38;97137.22;6205140;28;19921;-70
2023/07/08 04:56:09;;;;;;;;;;;;;;;33.95;26.06;97140.50;6219113;28;19956;-73
2023/07/08 04:59:15;;;;;;;;;;;;;;;36.92;24.27;97146.81;6203785;28;19961;-71
2023/07/08 05:02:21;;;;;;;;;;;;;;;39.90;22.35;97144.59;6222091;28;20019;-71
2023/07/08 05:05:24;;;;;;;;;;;;;;;42.29;20.42;97137.34;6204592;28;19928;-71
2023/07/08 05:08:28;;;;;;;;;;;;;;;44.31;19.53;97140.75;6188500;28;19921;-71
2023/07/08 05:11:30;;;;;;;;;;;;;;;46.34;18.53;97139.38;6221897;28;20379;-71
2023/07/08 05:14:34;;;;;;;;;;;;;;;47.99;17.64;97143.06;6221724;28;19925;-71
2023/07/08 05:17:43;;;;;;;;;;;;;;;50.02;16.98;97146.16;6221644;28;19921;-71
2023/07/08 05:20:50;;;;;;;;;;;;;;;51.20;15.54;97141.34;6222010;28;19922;-71
2023/07/08 05:23:51;;;;;;;;;;;;;;;51.29;13.82;97138.38;6221857;28;19921;-72
2023/07/08 05:26:59;;;;;;;;;;;;;;;51.15;13.67;97139.59;6201343;28;19921;-72
2023/07/08 05:30:03;;;;;;;;;;;;;;;52.39;11.30;97139.56;6196623;28;19999;-72
2023/07/08 05:33:08;;;;;;;;;;;;;;;54.75;12.60;97152.25;6198745;28;20012;-71
2023/07/08 05:36:09;;;;;;;;;;;;;;;55.88;11.94;97150.22;6226085;28;19906;-71
2023/07/08 05:39:12;;;;;;;;;;;;;;;56.61;11.58;97153.19;6225857;28;19932;-71
2023/07/08 05:42:20;;;;;;;;;;;;;;;56.72;10.84;97142.75;6229051;28;19944;-71
2023/07/08 05:45:26;;;;;;;;;;;;;;;56.47;10.60;97148.25;6190589;28;19906;-70
2023/07/08 05:48:34;;;;;;;;;;;;;;;56.00;10.94;97153.59;6196489;28;19925;-71
2023/07/08 08:37:06;;;;;;;;;;;;;;;59.47;4.46;97011.13;6848741;23;19926;-72
2023/07/08 08:40:13;;;;;;;;;;;;;;;58.53;4.55;97009.34;6227782;28;19921;-72
2023/07/08 08:43:19;;;;;;;;;;;;;;;57.27;5.27;96998.25;6224487;28;19944;-71
2023/07/08 08:46:20;;;;;;;;;;;;;;;58.00;4.72;96994.13;6208508;28;19945;-72
2023/07/08 08:49:22;;;;;;;;;;;;;;;59.16;4.50;96990.28;6203468;28;20303;-72
2023/07/08 08:52:25;;;;;;;;;;;;;;;57.61;4.84;96992.19;6198443;28;19929;-72
2023/07/08 08:55:29;;;;;;;;;;;;;;;57.31;4.92;96987.75;6196718;28;20415;-73
2023/07/08 08:59:00;;;;;;;;;;;;;;;57.50;4.91;96983.75;6198218;28;19929;-72
2023/07/08 09:02:18;;;;;;;;;;;;;;;58.51;4.45;96983.41;6196817;28;19929;-71
2023/07/08 09:05:22;;;;;;;;;;;;;;;59.08;4.30;96977.38;6196998;28;19922;-72
2023/07/08 09:08:30;;;;;;;;;;;;;;;59.73;3.86;96983.28;6197285;28;20307;-72
2023/07/08 09:11:57;;;;;;;;;;;;;;;60.53;3.79;96981.13;6197882;28;20032;-72
2023/07/08 09:15:14;;;;;;;;;;;;;;;60.96;3.89;96984.16;6197642;28;20303;-72
2023/07/08 09:18:25;;;;;;;;;;;;;;;59.62;4.24;96974.88;6196470;28;20084;-73
2023/07/08 09:21:30;;;;;;;;;;;;;;;58.01;4.38;96973.06;6197719;28;20288;-71
2023/07/08 09:24:34;;;;;;;;;;;;;;;57.37;4.70;96976.03;6197599;28;19969;-71
2023/07/08 09:27:35;;;;;;;;;;;;;;;57.04;4.76;96963.91;6196821;28;19925;-71
2023/07/08 09:30:41;;;;;;;;;;;;;;;55.39;5.77;96954.75;6197400;28;19918;-72
2023/07/08 09:33:43;;;;;;;;;;;;;;;55.35;5.52;96953.91;6197158;28;19928;-72
2023/07/08 09:36:45;;;;;;;;;;;;;;;56.02;5.18;96953.50;6196233;28;20412;-71
2023/07/08 09:39:49;;;;;;;;;;;;;;;55.45;5.76;96947.53;6196018;28;19929;-71
2023/07/08 09:42:56;;;;;;;;;;;;;;;54.29;5.77;96944.78;6197344;28;19963;-72
2023/07/08 09:46:00;;;;;;;;;;;;;;;54.12;6.14;96951.03;6197047;28;19928;-71
2023/07/08 09:49:09;;;;;;;;;;;;;;;53.70;6.17;96954.06;6195024;28;19981;-71
2023/07/08 09:52:13;;;;;;;;;;;;;;;54.37;6.07;96939.28;6195194;28;19961;-71
2023/07/08 09:55:18;;;;;;;;;;;;;;;54.97;5.69;96939.09;6197014;28;19917;-71
2023/07/08 09:58:37;;;;;;;;;;;;;;;54.97;5.44;96938.28;6196793;28;19977;-71
2023/07/08 10:01:39;;;;;;;;;;;;;;;54.08;5.93;96936.09;6196946;28;20323;-71
2023/07/08 10:04:44;;;;;;;;;;;;;;;53.27;6.13;96925.25;6196530;28;19921;-71
2023/07/08 10:07:47;;;;;;;;;;;;;;;52.68;6.52;96925.47;6196411;28;20102;-71
2023/07/08 10:11:14;;;;;;;;;;;;;;;52.89;6.62;96916.63;6196771;28;19921;-71
2023/07/08 10:14:25;;;;;;;;;;;;;;;52.83;6.10;96915.31;6189694;28;19921;-70
2023/07/08 10:17:30;;;;;;;;;;;;;;;52.83;6.47;96915.31;6195959;28;19992;-71
2023/07/08 10:20:54;;;;;;;;;;;;;;;52.90;6.30;96909.81;6196231;28;19922;-72
2023/07/08 10:24:14;;;;;;;;;;;;;;;51.59;6.69;96914.41;6196447;28;20390;-71
2023/07/08 10:27:23;;;;;;;;;;;;;;;51.15;6.91;96920.16;6196593;28;19922;-70
2023/07/08 10:30:30;;;;;;;;;;;;;;;51.33;6.65;96912.19;6196543;28;19928;-70
2023/07/08 10:34:09;;;;;;;;;;;;;;;51.76;6.60;96907.59;6196446;28;19922;-72
2023/07/08 10:37:15;;;;;;;;;;;;;;;51.97;6.17;96908.00;6145034;28;19932;-72
2023/07/08 10:40:21;;;;;;;;;;;;;;;51.94;6.17;96903.13;6145155;28;19922;-71
2023/07/08 10:43:31;;;;;;;;;;;;;;;51.78;6.40;96899.59;6211437;28;19929;-73
2023/07/08 10:46:53;;;;;;;;;;;;;;;50.23;6.91;96889.34;6197230;28;19921;-72
2023/07/08 10:50:16;;;;;;;;;;;;;;;49.51;7.37;96891.19;6195981;28;20350;-70
2023/07/08 10:53:25;;;;;;;;;;;;;;;49.65;7.64;96897.25;6196169;28;19921;-70
2023/07/08 10:56:36;;;;;;;;;;;;;;;49.49;7.55;96888.78;6196100;28;19925;-71
2023/07/08 10:59:47;;;;;;;;;;;;;;;49.00;7.45;96889.59;6196103;28;19922;-71
2023/07/08 11:03:06;;;;;;;;;;;;;;;48.74;7.52;96889.09;6195710;28;20311;-72
2023/07/08 11:06:14;;;;;;;;;;;;;;;48.52;8.04;96888.38;6196027;28;19937;-71
2023/07/08 11:09:22;;;;;;;;;;;;;;;47.87;8.08;96867.66;6196229;28;19921;-73
2023/07/08 11:12:32;;;;;;;;;;;;;;;47.95;8.02;96872.34;6195450;28;19922;-71
2023/07/08 11:15:38;;;;;;;;;;;;;;;47.80;8.28;96864.63;6195870;28;19922;-71
2023/07/08 11:18:52;;;;;;;;;;;;;;;47.74;8.48;96866.78;6195589;28;20451;-71
2023/07/08 11:21:58;;;;;;;;;;;;;;;45.57;9.82;96854.50;6195777;28;19921;-71
2023/07/08 11:25:00;;;;;;;;;;;;;;;43.78;10.54;96864.13;6195094;28;19922;-71
2023/07/08 11:28:12;;;;;;;;;;;;;;;42.35;11.50;96854.94;6194180;28;19922;-71
2023/07/08 11:31:15;;;;;;;;;;;;;;;41.86;11.74;96850.75;6198854;28;19922;-70
2023/07/08 11:34:18;;;;;;;;;;;;;;;42.46;10.98;96850.00;6199398;28;19921;-71
2023/07/08 11:37:23;;;;;;;;;;;;;;;43.07;10.93;96859.06;6198648;28;20104;-72
2023/07/08 11:40:25;;;;;;;;;;;;;;;43.37;10.27;96856.75;6200337;28;19921;-71
2023/07/08 11:43:43;;;;;;;;;;;;;;;43.04;10.89;96854.13;6200046;28;19921;-71
2023/07/08 11:46:53;;;;;;;;;;;;;;;42.90;10.64;96851.38;6199824;28;20433;-71
2023/07/08 11:50:00;;;;;;;;;;;;;;;41.81;11.90;96850.81;6199845;28;20380;-71
2023/07/08 11:53:08;;;;;;;;;;;;;;;40.45;12.63;96836.59;6199586;28;19928;-71
2023/07/08 11:56:20;;;;;;;;;;;;;;;40.02;12.86;96839.22;6199581;28;19921;-71
2023/07/08 11:59:24;;;;;;;;;;;;;;;39.21;13.49;96844.19;6198135;28;19922;-71
2023/07/08 12:02:31;;;;;;;;;;;;;;;38.91;13.45;96836.09;6199427;28;19925;-70
2023/07/08 12:05:36;;;;;;;;;;;;;;;38.77;13.99;96831.16;6199339;28;19926;-70
2023/07/08 12:08:39;;;;;;;;;;;;;;;38.30;13.82;96837.88;6198652;28;20009;-69
2023/07/08 12:11:44;;;;;;;;;;;;;;;38.05;13.70;96837.91;6198707;28;20577;-71
2023/07/08 12:14:52;;;;;;;;;;;;;;;37.73;13.59;96834.34;6198971;28;20366;-72
2023/07/08 12:18:02;;;;;;;;;;;;;;;37.68;14.10;96830.75;6198889;28;20307;-70
2023/07/08 12:21:04;;;;;;;;;;;;;;;37.74;14.06;96835.19;6198584;28;20024;-70
2023/07/08 12:24:12;;;;;;;;;;;;;;;37.53;14.35;96826.91;6199171;28;19918;-70
2023/07/08 12:27:13;;;;;;;;;;;;;;;37.48;14.71;96821.44;6198919;28;20392;-71
2023/07/08 12:30:18;;;;;;;;;;;;;;;37.37;14.82;96819.75;6198610;28;19917;-71
2023/07/08 12:33:27;;;;;;;;;;;;;;;37.00;14.93;96815.25;6199129;28;20222;-72
2023/07/08 12:36:33;;;;;;;;;;;;;;;37.19;14.75;96818.34;6198830;28;19923;-71
2023/07/08 12:39:36;;;;;;;;;;;;;;;37.22;14.53;96812.31;6198327;28;20024;-70
2023/07/08 12:42:41;;;;;;;;;;;;;;;36.94;14.05;96805.34;6196494;28;19928;-74
2023/07/08 12:45:46;;;;;;;;;;;;;;;36.54;14.35;96801.38;6196873;28;19928;-72
2023/07/08 12:48:50;;;;;;;;;;;;;;;36.39;14.14;96804.03;6198526;28;20015;-72
2023/07/08 12:51:56;;;;;;;;;;;;;;;36.26;14.41;96793.53;6198065;28;20333;-72
2023/07/08 12:54:59;;;;;;;;;;;;;;;36.13;14.70;96790.19;6197928;28;19921;-71
2023/07/08 12:58:05;;;;;;;;;;;;;;;36.18;14.28;96792.97;6197432;28;19928;-73
2023/07/08 13:01:07;;;;;;;;;;;;;;;36.07;14.06;96791.25;6197538;28;19922;-72
2023/07/08 13:04:11;;;;;;;;;;;;;;;35.66;14.42;96790.91;6196869;28;19921;-71
2023/07/08 13:07:23;;;;;;;;;;;;;;;35.64;14.23;96787.66;6197191;28;20387;-73
2023/07/08 13:10:29;;;;;;;;;;;;;;;34.89;14.91;96785.78;6197793;28;19921;-71
2023/07/08 13:13:38;;;;;;;;;;;;;;;34.81;15.23;96787.88;6197131;28;19921;-72
2023/07/08 13:16:44;;;;;;;;;;;;;;;34.63;15.46;96788.22;6197845;28;19921;-71
2023/07/08 13:19:47;;;;;;;;;;;;;;;34.60;15.91;96788.72;6197661;28;19922;-71
2023/07/08 13:22:52;;;;;;;;;;;;;;;34.33;16.11;96783.16;6197126;28;20391;-72
2023/07/08 13:25:55;;;;;;;;;;;;;;;34.06;16.18;96783.09;6197640;28;19977;-72
2023/07/08 13:29:01;;;;;;;;;;;;;;;33.87;16.60;96791.50;6195085;28;20461;-71
2023/07/08 13:32:05;;;;;;;;;;;;;;;33.68;16.37;96788.19;6197172;28;19922;-72
2023/07/08 13:35:26;;;;;;;;;;;;;;;33.87;16.43;96780.59;6196498;28;19922;-71
2023/07/08 13:38:32;;;;;;;;;;;;;;;33.75;16.55;96788.06;6197150;28;19925;-71
2023/07/08 13:41:38;;;;;;;;;;;;;;;33.70;17.31;96780.59;6195637;28;20303;-74
2023/07/08 13:44:46;;;;;;;;;;;;;;;33.32;17.92;96778.59;6196899;28;19928;-71
2023/07/08 13:47:57;;;;;;;;;;;;;;;33.17;17.91;96764.69;6196428;28;19921;-72
2023/07/08 13:51:04;;;;;;;;;;;;;;;33.34;18.65;96770.97;6197167;28;19922;-71
2023/07/08 13:54:33;;;;;;;;;;;;;;;33.25;18.75;96767.00;6196627;28;19925;-71
2023/07/08 13:57:39;;;;;;;;;;;;;;;33.25;19.80;96758.84;6196647;28;19921;-71
2023/07/08 14:00:43;;;;;;;;;;;;;;;33.00;20.58;96767.38;6196933;28;19922;-71
2023/07/08 14:03:47;;;;;;;;;;;;;;;32.92;20.35;96762.28;6196963;28;20016;-71
2023/07/08 14:06:49;;;;;;;;;;;;;;;32.85;20.69;96765.19;6196733;28;20403;-71
2023/07/08 14:09:54;;;;;;;;;;;;;;;32.73;20.72;96767.13;6196771;28;19922;-71
2023/07/08 14:13:00;;;;;;;;;;;;;;;32.73;21.45;96770.69;6196772;28;19921;-71
2023/07/08 14:16:10;;;;;;;;;;;;;;;32.69;21.77;96765.94;6195602;28;19946;-72
2023/07/08 14:19:28;;;;;;;;;;;;;;;32.51;21.91;96756.91;6196043;28;20020;-71
2023/07/08 14:22:31;;;;;;;;;;;;;;;32.57;22.04;96760.53;6196452;28;19921;-70
2023/07/08 14:25:37;;;;;;;;;;;;;;;32.45;21.98;96771.44;6196369;28;20383;-71
2023/07/08 14:28:38;;;;;;;;;;;;;;;32.43;23.26;96760.78;6196177;28;19921;-71
2023/07/08 14:31:42;;;;;;;;;;;;;;;32.17;23.01;96755.88;6195290;28;19922;-72
2023/07/08 14:34:49;;;;;;;;;;;;;;;32.23;23.40;96754.09;6195910;28;20506;-71
2023/07/08 14:37:50;;;;;;;;;;;;;;;32.17;23.37;96750.44;6196061;28;20000;-72
2023/07/08 14:40:53;;;;;;;;;;;;;;;32.07;23.54;96761.09;6196398;28;20000;-71
2023/07/08 14:43:56;;;;;;;;;;;;;;;32.09;24.54;96748.91;6196175;28;19922;-71
2023/07/08 14:46:58;;;;;;;;;;;;;;;31.88;24.40;96750.34;6196078;28;20343;-71
2023/07/08 14:50:00;;;;;;;;;;;;;;;31.75;24.55;96743.25;6195984;28;19929;-72
2023/07/08 14:53:05;;;;;;;;;;;;;;;31.68;24.95;96742.53;6195991;28;20335;-70
2023/07/08 14:56:13;;;;;;;;;;;;;;;31.54;25.32;96749.28;6195922;28;20415;-71
2023/07/08 14:59:21;;;;;;;;;;;;;;;31.35;25.15;96753.13;6196230;28;19921;-72
2023/07/08 15:02:25;;;;;;;;;;;;;;;31.22;25.12;96757.69;6195669;28;19921;-71
2023/07/08 15:05:33;;;;;;;;;;;;;;;31.14;24.99;96752.63;6197764;28;19922;-71
2023/07/08 15:08:37;;;;;;;;;;;;;;;30.97;25.53;96747.03;6200547;28;19922;-70
2023/07/08 15:11:39;;;;;;;;;;;;;;;30.84;25.29;96753.47;6200573;28;20404;-71
2023/07/08 15:14:42;;;;;;;;;;;;;;;30.94;25.23;96752.06;6200358;28;19922;-70
2023/07/08 15:17:46;;;;;;;;;;;;;;;31.32;25.55;96738.94;6200670;28;19925;-70
2023/07/08 15:20:50;;;;;;;;;;;;;;;31.00;25.91;96741.13;6200395;28;19929;-70
2023/07/08 15:23:57;;;;;;;;;;;;;;;30.63;26.40;96746.66;6200473;28;19977;-71
2023/07/08 15:27:04;;;;;;;;;;;;;;;30.32;26.35;96750.38;6200178;28;20008;-69
2023/07/08 15:30:14;;;;;;;;;;;;;;;30.15;26.57;96750.13;6199717;28;19929;-71
2023/07/08 15:33:17;;;;;;;;;;;;;;;29.95;26.72;96742.22;6199740;28;19922;-70
2023/07/08 15:36:21;;;;;;;;;;;;;;;29.83;27.51;96741.28;6199253;28;19925;-71
2023/07/08 15:39:25;;;;;;;;;;;;;;;29.70;27.55;96738.75;6199681;28;20403;-71
2023/07/08 15:42:26;;;;;;;;;;;;;;;29.60;27.33;96735.66;6199597;28;19944;-71
2023/07/08 15:45:35;;;;;;;;;;;;;;;29.67;27.84;96739.19;6199937;28;19985;-70
2023/07/08 15:48:38;;;;;;;;;;;;;;;29.39;28.25;96740.44;6199547;28;19948;-71
2023/07/08 15:51:41;;;;;;;;;;;;;;;29.21;28.39;96734.97;6198082;28;20351;-70
2023/07/08 15:54:47;;;;;;;;;;;;;;;28.99;28.61;96732.59;6199633;28;20395;-71
2023/07/08 15:57:56;;;;;;;;;;;;;;;28.98;28.66;96739.06;6199349;28;19921;-72
2023/07/08 16:01:03;;;;;;;;;;;;;;;28.94;28.81;96740.56;6198996;28;19921;-72
2023/07/08 16:04:04;;;;;;;;;;;;;;;28.72;28.91;96725.69;6199181;28;20315;-71
2023/07/08 16:07:10;;;;;;;;;;;;;;;28.56;29.16;96725.19;6199146;28;19968;-72
2023/07/08 16:10:14;;;;;;;;;;;;;;;28.48;29.30;96730.84;6198856;28;19929;-71
2023/07/08 16:13:21;;;;;;;;;;;;;;;28.29;29.36;96727.13;6199169;28;19929;-70
2023/07/08 16:16:25;;;;;;;;;;;;;;;28.22;29.71;96731.75;6198231;28;19957;-71
2023/07/08 16:19:29;;;;;;;;;;;;;;;28.12;29.79;96740.31;6198808;28;19921;-71
2023/07/08 16:22:30;;;;;;;;;;;;;;;28.09;29.92;96734.50;6197349;28;20354;-71
2023/07/08 16:25:38;;;;;;;;;;;;;;;28.11;30.41;96732.41;6198969;28;19988;-71
2023/07/08 16:28:44;;;;;;;;;;;;;;;27.82;30.42;96739.16;6198024;28;20375;-71
2023/07/08 16:31:46;;;;;;;;;;;;;;;27.66;30.78;96735.84;6197694;28;19933;-71
2023/07/08 16:34:50;;;;;;;;;;;;;;;27.69;31.26;96740.81;6199002;28;19922;-70
2023/07/08 16:37:56;;;;;;;;;;;;;;;27.64;31.90;96750.59;6198520;28;19922;-71
2023/07/08 16:40:59;;;;;;;;;;;;;;;27.41;32.62;96737.53;6198609;28;19953;-70
2023/07/08 16:44:00;;;;;;;;;;;;;;;27.24;33.16;96739.81;6198596;28;19918;-70
2023/07/08 16:47:02;;;;;;;;;;;;;;;27.17;33.35;96736.28;6196554;28;19922;-71
2023/07/08 16:50:04;;;;;;;;;;;;;;;26.90;33.74;96747.03;6198255;28;19921;-71
2023/07/08 16:53:09;;;;;;;;;;;;;;;26.94;34.49;96747.44;6198457;28;19928;-69
2023/07/08 16:56:16;;;;;;;;;;;;;;;26.78;34.83;96741.41;6197260;28;19932;-71
2023/07/08 16:59:17;;;;;;;;;;;;;;;26.69;35.24;96739.09;6197656;28;19928;-70
2023/07/08 17:02:19;;;;;;;;;;;;;;;26.50;35.07;96730.75;6197383;28;20284;-70
2023/07/08 17:05:27;;;;;;;;;;;;;;;26.38;34.80;96738.59;6196984;28;19928;-71
2023/07/08 17:08:28;;;;;;;;;;;;;;;26.51;35.83;96737.00;6197647;28;19922;-71
2023/07/08 17:11:34;;;;;;;;;;;;;;;26.35;35.73;96732.75;6198059;28;19946;-71
2023/07/08 17:14:40;;;;;;;;;;;;;;;26.24;35.90;96741.41;6197838;28;19922;-73
2023/07/08 17:17:53;;;;;;;;;;;;;;;26.24;36.37;96742.25;6198109;28;19922;-71
2023/07/08 17:20:58;;;;;;;;;;;;;;;26.21;37.54;96742.66;6195416;28;19929;-71
2023/07/08 17:23:59;;;;;;;;;;;;;;;26.13;37.21;96746.38;6197459;28;20311;-72
2023/07/08 17:27:02;;;;;;;;;;;;;;;26.03;37.69;96750.47;6197340;28;20263;-71
2023/07/08 17:30:09;;;;;;;;;;;;;;;25.83;38.18;96740.41;6197500;28;19921;-71
2023/07/08 17:33:19;;;;;;;;;;;;;;;25.82;38.29;96737.84;6197672;28;19921;-71
2023/07/08 17:36:22;;;;;;;;;;;;;;;25.88;38.77;96731.72;6197080;28;19921;-70
2023/07/08 17:39:26;;;;;;;;;;;;;;;25.71;38.36;96731.19;6197499;28;19925;-70
2023/07/08 17:42:29;;;;;;;;;;;;;;;25.69;39.02;96735.94;6197198;28;19921;-71
2023/07/08 17:45:45;;;;;;;;;;;;;;;25.54;38.97;96736.06;6197157;28;20311;-71
2023/07/08 17:48:50;;;;;;;;;;;;;;;25.51;39.54;96731.06;6196543;28;19957;-70
2023/07/08 17:51:53;;;;;;;;;;;;;;;25.34;39.21;96729.69;6196387;28;20307;-70
2023/07/08 17:54:54;;;;;;;;;;;;;;;25.21;39.13;96727.72;6196119;28;19921;-71
2023/07/08 17:57:57;;;;;;;;;;;;;;;25.22;39.72;96729.38;6196944;28;19922;-70
2023/07/08 18:01:07;;;;;;;;;;;;;;;25.41;40.79;96731.38;6197237;28;19922;-71
2023/07/08 18:04:12;;;;;;;;;;;;;;;25.30;40.63;96729.22;6196854;28;20396;-70
2023/07/08 18:07:15;;;;;;;;;;;;;;;25.06;41.08;96735.84;6196333;28;19925;-70
2023/07/08 18:10:17;;;;;;;;;;;;;;;25.02;41.18;96732.69;6196641;28;19922;-72
2023/07/08 18:13:22;;;;;;;;;;;;;;;24.81;40.78;96736.25;6196774;28;19922;-71
2023/07/08 18:16:27;;;;;;;;;;;;;;;24.67;41.15;96728.25;6196379;28;19922;-71
2023/07/08 18:19:30;;;;;;;;;;;;;;;24.69;41.75;96736.97;6196453;28;19922;-71
2023/07/08 18:22:38;;;;;;;;;;;;;;;24.51;41.75;96734.69;6196759;28;19921;-71
2023/07/08 18:25:42;;;;;;;;;;;;;;;24.36;41.54;96732.00;6196247;28;19921;-72
2023/07/08 18:28:46;;;;;;;;;;;;;;;24.25;41.55;96741.41;6179390;28;19921;-70
2023/07/08 18:31:47;;;;;;;;;;;;;;;24.17;41.78;96744.19;6196387;28;20335;-71
2023/07/08 18:34:52;;;;;;;;;;;;;;;24.07;41.67;96749.03;6196363;28;20341;-72
2023/07/08 18:37:56;;;;;;;;;;;;;;;23.93;41.58;96750.72;6196157;28;20217;-71
2023/07/08 18:41:02;;;;;;;;;;;;;;;23.85;41.31;96753.50;6201337;28;20311;-72
2023/07/08 18:44:06;;;;;;;;;;;;;;;23.84;41.69;96754.53;6201414;28;20415;-71
2023/07/08 18:47:14;;;;;;;;;;;;;;;23.75;42.17;96761.84;6201138;28;19922;-70
2023/07/08 18:50:15;;;;;;;;;;;;;;;23.68;42.04;96756.34;6201066;28;20023;-70
2023/07/08 18:53:22;;;;;;;;;;;;;;;23.64;42.14;96759.59;6201205;28;19917;-70